createdAt,value
2024-02-29T00:07:25.716Z,100593
2024-02-29T00:17:26.688Z,100597
2024-02-29T00:27:26.965Z,100597
2024-02-29T00:37:27.589Z,100588
2024-02-29T00:47:28.181Z,100590
2024-02-29T00:57:28.721Z,100590
2024-02-29T01:07:29.310Z,100586
2024-02-29T01:17:29.883Z,100569
2024-02-29T01:27:30.629Z,100577
2024-02-29T01:37:31.077Z,100572
2024-02-29T01:47:31.713Z,100563
2024-02-29T01:57:32.278Z,100561
2024-02-29T02:07:32.631Z,100552
2024-02-29T02:17:33.680Z,100541
2024-02-29T02:27:33.809Z,100537
2024-02-29T02:37:34.305Z,100541
2024-02-29T02:47:34.914Z,100542
2024-02-29T02:57:35.546Z,100547
2024-02-29T03:07:36.047Z,100544
2024-02-29T03:17:36.655Z,100561
2024-02-29T03:27:37.135Z,100556
2024-02-29T03:37:37.774Z,100563
2024-02-29T03:47:38.245Z,100560
2024-02-29T03:57:38.822Z,100570
2024-02-29T04:07:39.392Z,100557
2024-02-29T04:17:39.998Z,100551
2024-02-29T04:27:40.845Z,100552
2024-02-29T04:37:41.113Z,100539
2024-02-29T04:47:41.716Z,100540
2024-02-29T04:57:42.284Z,100548
2024-02-29T05:07:42.805Z,100557
2024-02-29T05:17:43.400Z,100551
2024-02-29T05:27:44.044Z,100562
2024-02-29T05:37:44.505Z,100555
2024-02-29T05:47:45.040Z,100551
2024-02-29T05:57:45.662Z,100560
2024-02-29T06:07:46.156Z,100565
2024-02-29T06:17:47.041Z,100577
2024-02-29T06:27:47.359Z,100584
2024-02-29T06:37:47.949Z,100577
2024-02-29T06:47:48.627Z,100583
2024-02-29T06:57:49.461Z,100576
2024-02-29T07:07:49.984Z,100576
2024-02-29T07:17:50.733Z,100571
2024-02-29T07:27:51.589Z,100564
2024-02-29T07:37:54.709Z,100562
2024-02-29T07:47:52.594Z,100557
2024-02-29T07:57:53.332Z,100552
2024-02-29T08:07:53.956Z,100546
2024-02-29T08:17:54.801Z,100547
2024-02-29T08:27:55.716Z,100552
2024-02-29T08:37:57.986Z,100543
2024-02-29T08:47:57.183Z,100541
2024-02-29T08:57:57.946Z,100540
2024-02-29T09:07:58.926Z,100543
2024-02-29T09:17:59.898Z,100538
2024-02-29T09:28:00.830Z,100527
2024-02-29T09:38:02.017Z,100532
2024-02-29T09:48:02.936Z,100524
2024-02-29T09:58:04.082Z,100513
2024-02-29T10:08:07.028Z,100513
2024-02-29T10:18:06.446Z,100510
2024-02-29T10:28:07.956Z,100498
2024-02-29T10:38:09.097Z,100483
2024-02-29T10:48:10.351Z,100466
2024-02-29T10:58:11.544Z,100456
2024-02-29T11:08:12.708Z,100439
2024-02-29T11:18:14.075Z,100434
2024-02-29T11:28:15.353Z,100421
2024-02-29T11:48:17.863Z,100406
2024-02-29T11:58:19.329Z,100390
2024-02-29T12:08:20.453Z,100382
2024-02-29T12:18:21.828Z,100366
2024-02-29T12:28:23.285Z,100361
2024-02-29T12:38:24.519Z,100340
2024-02-29T12:48:25.922Z,100332
2024-02-29T12:58:27.564Z,100323
2024-02-29T13:08:28.596Z,100306
2024-02-29T13:18:29.948Z,100294
2024-02-29T13:28:31.253Z,100294
2024-02-29T13:38:32.841Z,100288
2024-02-29T13:48:34.060Z,100281
2024-02-29T13:58:35.206Z,100276
2024-02-29T14:08:36.751Z,100271
2024-02-29T14:18:37.967Z,100268
2024-02-29T14:28:39.182Z,100263
2024-02-29T14:38:40.665Z,100258
2024-02-29T14:48:42.200Z,100249
2024-02-29T14:58:43.186Z,100236
2024-02-29T15:08:44.442Z,100228
2024-02-29T15:18:45.846Z,100220
2024-02-29T15:28:47.321Z,100210
2024-02-29T15:38:48.485Z,100200
2024-02-29T15:48:49.566Z,100190
2024-02-29T15:58:50.855Z,100185
2024-02-29T16:08:52.104Z,100179
2024-02-29T16:18:53.310Z,100174
2024-02-29T16:28:54.396Z,100171
2024-02-29T16:38:55.596Z,100172
2024-02-29T16:48:56.790Z,100167
2024-02-29T16:58:57.972Z,100166
2024-02-29T17:08:59.171Z,100154
2024-02-29T17:19:00.650Z,100141
2024-02-29T17:29:01.981Z,100142
2024-02-29T17:39:02.677Z,100135
2024-02-29T17:49:03.854Z,100127
2024-02-29T17:59:04.980Z,100127
2024-02-29T18:09:06.033Z,100111
2024-02-29T18:19:07.110Z,100107
2024-02-29T18:29:07.987Z,100110
2024-02-29T18:39:11.277Z,100105
2024-02-29T18:49:09.928Z,100093
2024-02-29T18:59:11.221Z,100098
2024-02-29T19:09:12.158Z,100084
2024-02-29T19:19:13.365Z,100079
2024-02-29T19:29:14.051Z,100058
2024-02-29T19:39:15.137Z,100066
2024-02-29T19:49:16.146Z,100060
2024-02-29T19:59:17.070Z,100069
2024-02-29T20:09:18.166Z,100078
2024-02-29T20:19:19.165Z,100079
2024-02-29T20:29:20.187Z,100065
2024-02-29T20:39:21.393Z,100058
2024-02-29T20:49:22.175Z,100059
2024-02-29T20:59:25.339Z,100056
2024-02-29T21:09:24.047Z,100046
2024-02-29T21:19:25.272Z,100031
2024-02-29T21:29:25.942Z,100020
2024-02-29T21:39:35.872Z,100009
2024-02-29T21:49:27.997Z,99974
2024-02-29T21:59:28.756Z,99955
2024-02-29T22:09:29.741Z,99943
2024-02-29T22:19:30.744Z,99935
2024-02-29T22:29:31.815Z,99939
2024-02-29T22:39:32.753Z,99939
2024-02-29T22:49:33.653Z,99925
2024-02-29T22:59:34.507Z,99911
2024-02-29T23:09:35.059Z,99886
2024-02-29T23:19:35.873Z,99884
2024-02-29T23:29:36.653Z,99877
2024-02-29T23:39:37.471Z,99859
2024-02-29T23:49:38.648Z,99860
2024-02-29T23:59:39.248Z,99852
